METAR Data
IDs: Format: Raw Decoded Include TAF

Data at: 0622 UTC 11 Dec 2018

PAKF 110556Z AUTO 31018G26KT 280V360 10SM FEW048 01/M08 A2917 RMK AO2 PK WND 30031/0533 UPB08E33SNE08 SLP878 P0002 60005 T00061083 10017 21006 53023 FZRANO
PAKF 110513Z AUTO 31019G28KT 10SM FEW014 SCT025 SCT030 01/M07 A2914 RMK AO2 PK WND 31028/0507 UPB08E10SNE08 P0002 FZRANO
PAKF 110456Z AUTO 30017G32KT 260V330 3SM -SN SCT012 BKN023 OVC060 01/M05 A2914 RMK AO2 PK WND 32032/0455 RAE21SNB21 SLP868 P0000 T00061050 FZRANO
PAKF 110447Z AUTO 34013G27KT 2 1/2SM -SN FEW005 BKN012 OVC029 01/M04 A2913 RMK AO2 PK WND 29027/0441 RAE21SNB21 P0000 FZRANO
PAKF 110440Z AUTO 33015G24KT 3SM -SN BKN009 BKN022 OVC060 00/M04 A2913 RMK AO2 PK WND 28026/0428 RAE21SNB21 CIG 004V016 P0000 FZRANO
PAKF 110435Z AUTO 32010G26KT 1 1/4SM -SN FEW005 BKN011 BKN023 M01/M03 A2912 RMK AO2 PK WND 28026/0428 VIS 1/2V5 RAE21SNB21 P0000 FZRANO
PAKF 110428Z AUTO 31014G26KT 3/4SM -SN SCT005 BKN015 BKN034 M01/M03 A2912 RMK AO2 PK WND 28026/0428 RAE21SNB21 CIG 012V024 P0000 FZRANO RVRNO
PAKF 110424Z AUTO 34016G26KT 1 1/2SM -SN SCT009 SCT031 BKN050 M01/M04 A2911 RMK AO2 PK WND 30026/0415 RAE21SNB21 P0000 FZRANO
PAKF 110356Z AUTO 33008G35KT 280V010 8SM -RA FEW011 SCT032 OVC041 01/M05 A2910 RMK AO2 PK WND 33035/0352 RAB18SNE18B41E53 SLP855 P0000 T00061050 FZRANO
PAKF 110343Z AUTO 33017G31KT 310V010 2 1/2SM -SN FEW009 BKN030 OVC046 00/M04 A2909 RMK AO2 PK WND 32031/0343 RAB18E41SNE18B41 P0000 FZRANO
PAKF 110317Z AUTO 35014G23KT 310V040 9SM -SN FEW010 BKN030 OVC040 01/M04 A2907 RMK AO2 PK WND 32027/0258 P0000 FZRANO
PAKF 110306Z AUTO 32016G27KT 3SM -SN FEW008 BKN023 OVC029 01/M03 A2906 RMK AO2 PK WND 32027/0258 P0000 FZRANO
PAKF 110302Z AUTO 32012G27KT 270V010 1 1/4SM -SN SCT008 BKN023 OVC029 01/M03 A2905 RMK AO2 PK WND 32027/0258 P0000 FZRANO
PAKF 110256Z AUTO 32014G21KT 1 1/4SM -SN SCT008 BKN014 OVC026 01/M03 A2905 RMK AO2 PK WND 31032/0242 RAE14UPB03E06SNB14 SLP838 P0000 60003 T00061028 53035 FZRANO
PAKF 110253Z AUTO 31012G21KT 1 3/4SM -SN FEW008 BKN023 OVC028 01/M03 A2905 RMK AO2 PK WND 31032/0242 VIS 3/4V3 RAE14UPB03E06SNB14 P0000 FZRANO
PAKF 110247Z AUTO 34011G32KT 3SM -SN FEW008 BKN025 OVC038 01/M04 A2905 RMK AO2 PK WND 31032/0242 RAE14UPB03E06SNB14 P0000 FZRANO
PAKF 110241Z AUTO 30008G19KT 260V350 1 1/2SM -SN FEW008 BKN019 OVC038 00/M04 A2905 RMK AO2 PK WND 31031/0212 VIS 1/2V5 RAE14UPB03E06SNB14 PRESRR P0000 FZRANO
PAKF 110231Z AUTO 33011G23KT 3/4SM -SN FEW008 BKN027 OVC036 01/M03 A2904 RMK AO2 PK WND 31031/0212 VIS 1/4V5 RAE14UPB03E06SNB14 PRESRR P0000 FZRANO RVRNO
PAKF 110229Z AUTO 33014G23KT 270V350 1 1/4SM -SN FEW008 BKN038 OVC049 01/M04 A2903 RMK AO2 PK WND 31031/0212 VIS 1/4V5 RAE14UPB03E06SNB14 PRESRR P0000 FZRANO
PAKF 110156Z AUTO 28009G20KT 10SM -RA FEW022 SCT031 BKN045 01/M06 A2900 RMK AO2 PK WND 28043/0122 RAE01B20UPB14E36SNB01E14B36E50 PRESRR SLP819 P0001 T00111061 FZRANO
PAKF 110151Z AUTO 32014G26KT 8SM -RA FEW015 BKN034 OVC044 01/M06 A2899 RMK AO2 PK WND 28043/0122 RAE01B20UPB14E36SNB01E14B36E50 P0001 FZRANO
PAKF 110143Z AUTO 29011G32KT 230V360 2SM -SN FEW011 BKN028 OVC042 01/M04 A2898 RMK AO2 PK WND 28043/0122 RAE01B20E35UPB14E36SNB01E14B36 P0001 FZRANO
PAKF 110135Z AUTO 31021G33KT 1 3/4SM UP FEW011 BKN030 OVC041 01/M04 A2897 RMK AO2 PK WND 28043/0122 VIS 3/4V4 RAE01B20E35UPB14SNB01E14 PRESRR P0001 FZRANO
PAKF 110122Z AUTO 30028G43KT 5SM -RA FEW029 BKN039 OVC046 01/M04 A2893 RMK AO2 PK WND 28043/0122 RAE01B20UPB14E20SNB01E14 P0001 FZRANO
PAKF 110109Z AUTO 34025G37KT 2SM -SN FEW028 BKN042 OVC049 01/M04 A2893 RMK AO2 PK WND 35037/0109 RAE01SNB01 PRESFR P0000 FZRANO
PAKF 110056Z AUTO 31019G33KT 4SM -RA FEW028 SCT034 OVC045 01/M04 A2895 RMK AO2 PK WND 29033/0047 RAE2358B25E34B50UPB43E50SNB2358E43 SLP802 P0002 T00111039 FZRANO
PAKF 110046Z AUTO 33018G30KT 3SM UP SCT026 BKN036 OVC047 01/M04 A2895 RMK AO2 PK WND 29033/0025 RAE2358B25E34UPB43SNB2358E43 P0002 FZRANO
PAKF 110020Z AUTO 31020G28KT 2SM -SN SCT012 BKN023 OVC028 02/M03 A2894 RMK AO2 PK WND 34029/0003 RAE2358SNB2358 P0001 FZRANO
PAKF 110010Z AUTO 31017G29KT 260V350 1SM -SN SCT012 BKN021 OVC041 02/M02 A2893 RMK AO2 PK WND 34029/0003 RAE2358SNB2358 P0001 FZRANO RVRNO
PAKF 110003Z AUTO 32018G29KT 270V350 1 1/4SM -SN FEW010 BKN020 OVC043 02/M02 A2892 RMK AO2 PK WND 34029/0003 RAE2358SNB2358 P0000 FZRANO
PAKF 102356Z AUTO 31019G27KT 2SM -RA FEW013 BKN022 OVC045 02/M03 A2892 RMK AO2 PK WND 30035/2319 SNB19E52 SLP793 6//// T00171028 10033 20006 53069 FZRANO
PAKF 102348Z AUTO 30015G29KT 3SM -SN FEW015 BKN027 OVC042 02/M03 A2891 RMK AO2 PK WND 30035/2319 RAE40SNB19 FZRANO
PAKF 102342Z AUTO 33019G29KT 1 3/4SM -SN FEW015 BKN021 OVC029 02/M02 A2891 RMK AO2 PK WND 30035/2319 RAE40SNB19 FZRANO
PAKF 102335Z AUTO 31020G25KT 5SM -RA FEW012 OVC021 02/M02 A2890 RMK AO2 PK WND 30035/2319 SNB19E30 PRESRR FZRANO PNO $
PAKF 102322Z AUTO 34016G35KT 310V020 2SM -SN FEW010 BKN017 OVC023 02/M01 A2888 RMK AO2 PK WND 30035/2319 RAE19SNB19 FZRANO PNO $
PAKF 102256Z AUTO 31016G32KT 280V350 6SM -RA FEW010 OVC019 02/M01 A2885 RMK AO2 PK WND 30044/2220 UPB13E15 PRESRR SLP770 P0002 T00221011 FZRANO
PAKF 102223Z AUTO 30021G44KT 4SM -RA FEW011 BKN020 OVC024 03/M01 A2880 RMK AO2 PK WND 30044/2220 UPB13E15 P0002
PAKF 102214Z AUTO 32017G34KT 2SM UP FEW007 BKN018 OVC026 03/M01 A2878 RMK AO2 PK WND 30034/2212 VIS 1V5 RAE13UPB13 P0001
PAKF 102206Z AUTO 32018G33KT 280V340 1 3/4SM -RA SCT011 BKN018 OVC025 02/M01 A2878 RMK AO2 PK WND 32033/2158 VIS 1V5 P0001 FZRANO
PAKF 102156Z AUTO 32015G29KT 220V010 5SM -RA FEW015 BKN022 OVC033 03/M01 A2876 RMK AO2 PK WND 32035/2126 UPB10E16 SLP740 P0000 T00281011
PAKF 102136Z AUTO 29023G33KT 7SM -RA FEW011 BKN024 OVC033 03/M02 A2875 RMK AO2 PK WND 32035/2126 UPB10E16 P0000
PAKF 102120Z AUTO 33011G19KT 290V360 9SM -RA SCT028 BKN033 03/M02 A2873 RMK AO2 UPB10E16 P0000
PAKF 102056Z AUTO 31011G26KT 250V340 10SM -RA FEW014 BKN020 BKN027 03/M02 A2872 RMK AO2 PK WND 29030/2034 RAB41SNE41 SLP724 P0001 60001 T00281017 53029
PAKF 102035Z AUTO 31019G30KT 3SM -SN FEW007 BKN012 OVC034 02/M01 A2871 RMK AO2 PK WND 29030/2034 P0001 FZRANO
PAKF 102026Z AUTO 31011G16KT 2SM -SN BR FEW007 BKN012 OVC032 02/M01 A2870 RMK AO2 P0000 FZRANO
PAKF 102017Z AUTO 33006KT 1SM -SN BR SCT007 BKN012 OVC027 01/M01 A2871 RMK AO2 P0000 FZRANO RVRNO
PAKF 102013Z AUTO 33006KT 1 3/4SM -SN BR FEW007 BKN019 OVC027 01/M01 A2871 RMK AO2 VIS 3/4V5 P0000 FZRANO
PAKF 102003Z AUTO 27005KT 2 1/2SM -SN SCT017 BKN025 OVC049 01/M02 A2871 RMK AO2 VIS 1 3/4V4 P0000 FZRANO
PAKF 101956Z AUTO 31008KT 2 1/2SM -SN SCT017 BKN033 OVC060 02/M02 A2870 RMK AO2 VIS 1 3/4V3 RAB26E50UPB50E56SNB56 SLP718 P0000 T00171017 FZRANO
PAKF 101856Z AUTO 31004KT 10SM BKN060 OVC080 02/M04 A2865 RMK AO2 SLP701 T00171039 FZRANO
PAKF 101756Z AUTO 00000KT 10SM CLR 03/M04 A2863 RMK AO2 SLP695 T00331039 10033 20000 55003
PAKF 101656Z AUTO 21011G19KT 10SM CLR 03/M04 A2862 RMK AO2 SLP691 T00331039
PAKF 101556Z AUTO 20012G17KT 10SM CLR 03/M04 A2862 RMK AO2 SLP693 T00331039
PAKF 101456Z AUTO 21013G18KT 10SM CLR 03/M04 A2864 RMK AO2 SLP698 T00281039 58010
PAKF 101356Z AUTO 22007G14KT 10SM FEW095 02/M03 A2865 RMK AO2 SLP703 T00221033 FZRANO
PAKF 101256Z AUTO 16007KT 10SM FEW045 02/M02 A2867 RMK AO2 SLP710 T00171022 FZRANO
PAKF 101156Z AUTO 14010G15KT 10SM FEW039 BKN120 02/M02 A2867 RMK AO2 RAE22 SLP708 P0000 60004 70079 T00171017 10017 20000 50012 FZRANO
PAKF 101107Z AUTO VRB04KT 10SM -RA FEW018 BKN033 OVC120 01/M01 A2866 RMK AO2 P0000 FZRANO
PAKF 101056Z AUTO VRB04KT 10SM -RA FEW015 BKN019 OVC032 01/00 A2867 RMK AO2 RAB13E23B40UPB23E40SNE13 SLP708 P0001 T00060000 FZRANO
PAKF 101012Z AUTO VRB05KT 7SM -SN SCT013 OVC022 01/00 A2865 RMK AO2 P0000 FZRANO
PAKF 100956Z AUTO VRB03KT 5SM -SN BR BKN013 BKN035 OVC095 01/00 A2865 RMK AO2 RAB25E47SNB47 SLP703 P0000 T00110000 FZRANO
PAKF 100856Z AUTO 23004KT 10SM SCT085 OVC110 00/M01 A2863 RMK AO2 SLP696 60003 T00001006 400440000 58003 FZRANO
PAKF 100814Z AUTO 22003KT 10SM SCT007 SCT036 OVC070 01/00 A2864 RMK AO2 FZRANO
PAKF 100756Z AUTO 00000KT 10SM OVC005 01/00 A2864 RMK AO2 UPB07E30RAB30E53SNE07 CIG 004V008 SLP698 P0001 T00060000 FZRANO
PAKF 100656Z AUTO 25004KT 5SM -SN BR BKN005 OVC010 01/M01 A2864 RMK AO2 UPB08E14RAB14E50SNE08B50 CIG 004V008 SLP699 P0002 T00061006 FZRANO
PAKF 100646Z AUTO 00000KT 6SM -RA BR BKN007 OVC010 01/00 A2865 RMK AO2 UPB08E14RAB14SNE08 CIG 005V009 P0001 FZRANO
PAKF 100621Z AUTO 00000KT 10SM -RA OVC005 01/00 A2866 RMK AO2 UPB08E14RAB14SNE08 P0000 FZRANO
PAKF 100608Z AUTO 00000KT 7SM UP BKN007 OVC012 01/00 A2866 RMK AO2 UPB08SNE08 P0000 FZRANO
PAKF 100556Z AUTO 00000KT 5SM -SN BR FEW007 BKN012 OVC018 01/00 A2867 RMK AO2 RAB19E45SNB45 SLP709 P0003 60069 T00110000 10044 20011 56019 FZRANO
PAKF 100553Z AUTO 01003KT 4SM -SN BR FEW007 BKN012 OVC018 01/00 A2867 RMK AO2 RAB19E45SNB45 P0003 FZRANO
PAKF 100456Z AUTO VRB05KT 10SM BKN027 OVC065 02/M01 A2870 RMK AO2 RAE06 SLP720 P0000 T00221011 FZRANO
PAKF 100442Z AUTO VRB04KT 10SM BKN029 BKN034 OVC060 02/M01 A2871 RMK AO2 RAE06 P0000 FZRANO
PAKF 100356Z AUTO 23006KT 10SM -RA SCT030 BKN040 OVC070 03/M01 A2873 RMK AO2 PK WND 22026/0300 SLP727 P0009 T00281006
PAKF 100352Z AUTO 26007G15KT 10SM -RA BKN030 BKN040 OVC070 03/M01 A2873 RMK AO2 PK WND 22026/0300 P0009
PAKF 100314Z AUTO 19014G20KT 4SM -RA BKN018 OVC023 04/01 A2873 RMK AO2 PK WND 22026/0300 P0006
PAKF 100256Z AUTO 19015G24KT 2 1/2SM -RA BR BKN017 OVC026 04/02 A2874 RMK AO2 PK WND 21037/0227 SLP732 P0016 60057 T00390017 56049
PAKF 100227Z AUTO 20026G37KT 3SM -RA BR BKN015 OVC021 04/02 A2875 RMK AO2 PK WND 21037/0227 P0006
PAKF 100215Z AUTO 20021G32KT 3SM -RA BR BKN014 OVC020 04/02 A2875 RMK AO2 PK WND 21032/0213 PRESFR P0004
PAKF 100156Z AUTO 20017G35KT 2 1/2SM -RA BR BKN014 OVC018 04/02 A2876 RMK AO2 PK WND 20035/0153 VIS 1 1/2V3 RAB52SNE52 SLP740 P0023 T00390022
PAKF 100146Z AUTO 21013G21KT 170V230 2SM -SN BR BKN012 OVC018 03/01 A2877 RMK AO2 VIS 1 1/2V4 PRESFR P0021
PAKF 100134Z AUTO 17011G16KT 1 1/2SM -SN BR FEW010 OVC018 02/01 A2879 RMK AO2 VIS 1V2 1/2 PRESFR P0015 FZRANO
PAKF 100119Z AUTO 19011KT 2SM -SN BR SCT010 OVC016 02/01 A2881 RMK AO2 P0009 FZRANO
PAKF 100056Z AUTO 20016G23KT 1 1/2SM -SN BR OVC012 02/00 A2883 RMK AO2 UPB2359E01RAB01E09SNE2359B09 SLP763 P0018 T00170000 FZRANO
PAKF 100049Z AUTO 20015KT 2 1/2SM -SN BR OVC014 02/01 A2883 RMK AO2 UPB2359E01RAB01E09SNE2359B09 P0014 FZRANO
PAKF 100036Z AUTO 18013G19KT 3SM -SN BR OVC014 02/01 A2885 RMK AO2 UPB2359E01RAB01E09SNE2359B09 PRESFR P0008 FZRANO
PAKF 092356Z AUTO 00000KT 4SM -SN BR OVC016 02/00 A2888 RMK AO2 RAB06E50SNB50 SLP781 P0001 60001 T00170000 10044 20011 58027 FZRANO
PAKF 092336Z AUTO 14007KT 8SM -RA BKN021 OVC030 02/M01 A2890 RMK AO2 RAB06 P0000 FZRANO
PAKF 092256Z AUTO 20010G20KT 10SM FEW041 BKN075 BKN090 04/M04 A2892 RMK AO2 SLP792 T00441039
PAKF 092156Z AUTO 22008G15KT 100V290 10SM FEW040 SCT110 04/M03 A2894 RMK AO2 SLP800 T00441033
PAKF 092056Z AUTO 20015G24KT 10SM CLR 04/M04 A2896 RMK AO2 SLP808 T00391044 51012
PAKF 091956Z AUTO 20008KT 10SM CLR 03/M04 A2896 RMK AO2 SLP807 T00281044
PAKF 091856Z AUTO VRB05KT 10SM CLR 02/M04 A2895 RMK AO2 SLP804 T00221039 FZRANO